createdAt,value
2018-08-12T00:00:18.165Z,99.60
2018-08-12T00:02:46.665Z,99.60
2018-08-12T00:05:15.183Z,99.60
2018-08-12T00:07:44.045Z,99.40
2018-08-12T00:10:12.996Z,99.30
2018-08-12T00:12:42.134Z,99.30
2018-08-12T00:15:12.936Z,99.30
2018-08-12T00:17:41.681Z,99.30
2018-08-12T00:20:14.996Z,99.20
2018-08-12T00:22:43.475Z,99.30
2018-08-12T00:25:14.322Z,99.40
2018-08-12T00:27:42.813Z,99.40
2018-08-12T00:30:12.741Z,99.40
2018-08-12T00:32:41.302Z,99.50
2018-08-12T00:35:12.111Z,99.60
2018-08-12T00:37:41.373Z,99.30
2018-08-12T00:40:11.533Z,99.30
2018-08-12T00:42:40.119Z,99.20
2018-08-12T00:45:11.190Z,99.10
2018-08-12T00:47:39.751Z,99.10
2018-08-12T00:50:09.633Z,99.00
2018-08-12T00:52:38.253Z,99.00
2018-08-12T00:55:08.856Z,99.10
2018-08-12T00:57:37.453Z,99.00
2018-08-12T01:00:11.873Z,99.00
2018-08-12T01:02:40.538Z,99.00
2018-08-12T01:05:13.033Z,99.00
2018-08-12T01:07:41.960Z,99.10
2018-08-12T01:10:12.043Z,99.10
2018-08-12T01:12:40.594Z,99.00
2018-08-12T01:15:12.589Z,99.20
2018-08-12T01:17:41.176Z,99.20
2018-08-12T01:20:11.457Z,99.30
2018-08-12T01:22:40.672Z,99.30
2018-08-12T01:25:11.106Z,99.20
2018-08-12T01:27:39.701Z,99.10
2018-08-12T01:30:13.826Z,99.40
2018-08-12T01:32:42.904Z,99.30
2018-08-12T01:35:12.311Z,99.20
2018-08-12T01:37:41.573Z,99.20
2018-08-12T01:40:12.950Z,99.00
2018-08-12T01:42:42.086Z,98.90
2018-08-12T01:45:12.600Z,99.00
2018-08-12T01:47:41.417Z,98.90
2018-08-12T01:50:11.695Z,98.80
2018-08-12T01:52:40.731Z,98.90
2018-08-12T01:55:10.390Z,98.70
2018-08-12T01:57:38.921Z,98.70
2018-08-12T02:00:09.268Z,98.80
2018-08-12T02:02:37.831Z,98.50
2018-08-12T02:05:07.382Z,98.60
2018-08-12T02:07:35.856Z,98.50
2018-08-12T02:10:05.715Z,98.60
2018-08-12T02:12:34.253Z,98.50
2018-08-12T02:15:02.747Z,98.30
2018-08-12T02:17:31.305Z,98.30
2018-08-12T02:19:59.829Z,98.20
2018-08-12T02:22:28.420Z,98.20
2018-08-12T02:24:56.995Z,98.20
2018-08-12T02:27:25.598Z,98.00
2018-08-12T02:29:54.253Z,98.20
2018-08-12T02:32:23.059Z,98.10
2018-08-12T02:34:52.602Z,98.20
2018-08-12T02:37:21.495Z,98.20
2018-08-12T02:39:50.363Z,98.30
2018-08-12T02:42:18.923Z,98.20
2018-08-12T02:44:47.555Z,98.20
2018-08-12T02:47:16.046Z,98.30
2018-08-12T02:49:44.600Z,98.20
2018-08-12T02:52:13.175Z,98.30
2018-08-12T02:54:41.662Z,98.20
2018-08-12T02:57:10.298Z,98.40
2018-08-12T02:59:38.984Z,98.40
2018-08-12T03:02:07.623Z,98.40
2018-08-12T03:04:37.129Z,98.50
2018-08-12T03:07:07.453Z,98.70
2018-08-12T03:09:36.254Z,98.70
2018-08-12T03:12:04.776Z,98.80
2018-08-12T03:14:33.210Z,98.80
2018-08-12T03:17:01.717Z,98.90
2018-08-12T03:19:30.510Z,99.00
2018-08-12T03:21:59.231Z,99.00
2018-08-12T03:24:27.783Z,99.20
2018-08-12T03:26:56.333Z,99.00
2018-08-12T03:29:24.763Z,99.40
2018-08-12T03:31:53.208Z,99.40
2018-08-12T03:34:21.717Z,99.60
2018-08-12T03:36:50.426Z,99.80
2018-08-12T03:39:19.970Z,99.90
2018-08-12T03:41:48.553Z,99.90
2018-08-12T03:44:17.157Z,99.90
2018-08-12T03:46:45.881Z,99.90
2018-08-12T03:49:14.509Z,99.90
2018-08-12T03:51:43.033Z,99.90
2018-08-12T03:54:11.678Z,99.90
2018-08-12T03:56:40.269Z,99.90
2018-08-12T03:59:08.748Z,99.90
2018-08-12T04:01:37.301Z,99.90
2018-08-12T04:04:05.964Z,99.90
2018-08-12T04:06:34.773Z,99.90
2018-08-12T04:09:03.547Z,99.90
2018-08-12T04:11:32.199Z,99.90
2018-08-12T04:14:01.025Z,99.90
2018-08-12T04:16:29.774Z,99.90
2018-08-12T04:18:58.478Z,99.90
2018-08-12T04:21:26.989Z,99.90
2018-08-12T04:23:55.707Z,99.90
2018-08-12T04:26:24.247Z,99.90
2018-08-12T04:28:52.860Z,99.90
2018-08-12T04:31:21.483Z,99.90
2018-08-12T04:33:50.019Z,99.90
2018-08-12T04:36:18.516Z,99.90
2018-08-12T04:38:47.058Z,99.90
2018-08-12T04:41:15.568Z,99.90
2018-08-12T04:43:44.089Z,99.90
2018-08-12T04:46:12.734Z,99.90
2018-08-12T04:48:41.965Z,99.90
2018-08-12T04:51:10.517Z,99.90
2018-08-12T04:53:39.037Z,99.90
2018-08-12T04:56:07.684Z,99.90
2018-08-12T04:58:36.343Z,99.90
2018-08-12T05:01:04.884Z,99.90
2018-08-12T05:03:33.443Z,99.90
2018-08-12T05:06:02.054Z,99.90
2018-08-12T05:08:31.301Z,99.90
2018-08-12T05:11:00.399Z,99.90
2018-08-12T05:13:29.180Z,99.90
2018-08-12T05:15:57.772Z,99.90
2018-08-12T05:18:26.292Z,99.90
2018-08-12T05:20:54.840Z,99.90
2018-08-12T05:23:23.370Z,99.90
2018-08-12T05:25:51.995Z,99.90
2018-08-12T05:28:20.581Z,99.90
2018-08-12T05:30:49.235Z,99.90
2018-08-12T05:33:17.800Z,99.90
2018-08-12T05:35:46.401Z,99.90
2018-08-12T05:38:15.011Z,99.90
2018-08-12T05:40:43.798Z,99.90
2018-08-12T05:43:12.374Z,99.90
2018-08-12T05:45:41.028Z,99.90
2018-08-12T05:48:16.581Z,99.90
2018-08-12T05:50:47.443Z,99.90
2018-08-12T05:53:16.258Z,99.90
2018-08-12T05:55:45.209Z,99.90
2018-08-12T05:58:14.784Z,99.90
2018-08-12T06:00:43.646Z,99.90
2018-08-12T06:03:12.404Z,99.90
2018-08-12T06:05:42.274Z,99.90
2018-08-12T06:08:11.821Z,99.90
2018-08-12T06:10:40.372Z,99.90
2018-08-12T06:13:11.161Z,99.90
2018-08-12T06:15:39.833Z,99.90
2018-08-12T06:18:08.577Z,99.90
2018-08-12T06:20:37.201Z,99.90
2018-08-12T06:23:05.862Z,99.90
2018-08-12T06:25:34.477Z,99.90
2018-08-12T06:28:03.228Z,99.90
2018-08-12T06:30:31.762Z,99.90
2018-08-12T06:33:00.418Z,99.90
2018-08-12T06:35:29.072Z,99.90
2018-08-12T06:37:57.723Z,99.90
2018-08-12T06:40:26.943Z,99.90
2018-08-12T06:42:56.180Z,99.90
2018-08-12T06:45:24.695Z,99.90
2018-08-12T06:47:53.285Z,99.90
2018-08-12T06:50:21.979Z,99.90
2018-08-12T06:52:50.614Z,99.90
2018-08-12T06:55:19.856Z,99.90
2018-08-12T06:57:49.259Z,99.60
2018-08-12T07:00:21.671Z,99.30
2018-08-12T07:02:51.305Z,98.70
2018-08-12T07:05:19.898Z,98.50
2018-08-12T07:07:48.474Z,98.70
2018-08-12T07:10:17.056Z,98.20
2018-08-12T07:12:45.707Z,98.00
2018-08-12T07:15:15.787Z,98.20
2018-08-12T07:17:45.162Z,97.80
2018-08-12T07:20:14.269Z,97.50
2018-08-12T07:22:43.115Z,97.40
2018-08-12T07:25:12.872Z,97.80
2018-08-12T07:27:42.307Z,97.70
2018-08-12T07:30:13.128Z,97.40
2018-08-12T07:32:41.706Z,97.60
2018-08-12T07:35:10.827Z,97.30
2018-08-12T07:37:39.612Z,97.10
2018-08-12T07:40:12.831Z,97.30
2018-08-12T07:42:41.337Z,97.00
2018-08-12T07:45:11.566Z,96.80
2018-08-12T07:47:40.318Z,97.00
2018-08-12T07:50:09.774Z,96.30
2018-08-12T07:52:39.546Z,96.80
2018-08-12T07:55:12.188Z,96.10
2018-08-12T07:57:41.396Z,96.30
2018-08-12T08:00:12.106Z,96.10
2018-08-12T08:02:40.752Z,95.40
2018-08-12T08:05:09.338Z,95.50
2018-08-12T08:07:38.443Z,95.70
2018-08-12T08:10:09.065Z,95.10
2018-08-12T08:12:38.632Z,95.20
2018-08-12T08:15:09.324Z,94.80
2018-08-12T08:17:39.044Z,94.20
2018-08-12T08:20:12.459Z,94.30
2018-08-12T08:22:42.070Z,94.20
2018-08-12T08:26:14.901Z,93.30
2018-08-12T08:28:43.669Z,93.40
2018-08-12T08:31:13.530Z,93.00
2018-08-12T08:33:42.393Z,92.20
2018-08-12T08:36:11.049Z,92.00
2018-08-12T08:38:39.774Z,91.90
2018-08-12T08:41:15.945Z,91.60
2018-08-12T08:43:46.845Z,91.30
2018-08-12T08:46:15.396Z,91.10
2018-08-12T08:48:44.829Z,90.90
2018-08-12T08:51:17.189Z,90.10
2018-08-12T08:54:03.000Z,90.00
2018-08-12T08:56:32.959Z,90.10
2018-08-12T08:59:05.345Z,90.10
2018-08-12T09:01:41.787Z,89.40
2018-08-12T09:04:20.280Z,89.10
2018-08-12T09:06:50.105Z,88.50
2018-08-12T09:09:20.248Z,88.40
2018-08-12T09:11:56.924Z,89.20
2018-08-12T09:14:28.221Z,90.20
2018-08-12T09:16:58.448Z,89.00
2018-08-12T09:19:27.656Z,88.40
2018-08-12T09:22:00.215Z,89.40
2018-08-12T09:24:29.663Z,88.80
2018-08-12T09:27:30.878Z,88.50
2018-08-12T09:30:00.780Z,88.40
2018-08-12T09:32:30.108Z,89.90
2018-08-12T09:35:01.489Z,88.60
2018-08-12T09:37:33.540Z,87.20
2018-08-12T09:40:04.670Z,87.50
2018-08-12T09:42:42.342Z,86.70
2018-08-12T09:45:13.591Z,85.80
2018-08-12T09:47:43.002Z,84.60
2018-08-12T09:50:13.708Z,86.30
2018-08-12T09:52:46.095Z,86.10
2018-08-12T09:55:18.580Z,87.30
2018-08-12T09:57:47.633Z,85.00
2018-08-12T10:00:23.050Z,84.80
2018-08-12T10:02:53.194Z,84.30
2018-08-12T10:05:21.748Z,83.20
2018-08-12T10:07:50.209Z,82.50
2018-08-12T10:10:18.885Z,83.90
2018-08-12T10:12:47.896Z,83.70
2018-08-12T10:15:16.981Z,82.60
2018-08-12T10:17:48.594Z,83.20
2018-08-12T10:20:17.756Z,83.70
2018-08-12T10:22:46.253Z,83.80
2018-08-12T10:25:14.767Z,83.80
2018-08-12T10:27:43.322Z,83.60
2018-08-12T10:30:14.277Z,83.10
2018-08-12T10:32:42.977Z,82.80
2018-08-12T10:35:12.923Z,83.70
2018-08-12T10:37:42.066Z,81.10
2018-08-12T10:40:19.134Z,81.50
2018-08-12T10:42:48.596Z,80.70
2018-08-12T10:45:17.285Z,77.90
2018-08-12T10:47:46.135Z,76.20
2018-08-12T10:50:16.635Z,75.10
2018-08-12T10:52:46.072Z,77.10
2018-08-12T10:55:16.041Z,77.60
2018-08-12T10:57:45.149Z,75.40
2018-08-12T11:00:16.292Z,76.20
2018-08-12T11:02:45.331Z,73.50
2018-08-12T11:05:14.791Z,73.30
2018-08-12T11:07:43.885Z,75.50
2018-08-12T11:10:12.916Z,75.20
2018-08-12T11:12:41.806Z,73.20
2018-08-12T11:15:10.666Z,72.80
2018-08-12T11:17:39.894Z,70.20
2018-08-12T11:20:09.226Z,71.70
2018-08-12T11:22:37.731Z,68.70
2018-08-12T11:25:07.517Z,69.40
2018-08-12T11:27:36.653Z,70.80
2018-08-12T11:30:09.745Z,71.10
2018-08-12T11:32:38.360Z,70.90
2018-08-12T11:35:08.605Z,72.40
2018-08-12T11:37:37.849Z,70.70
2018-08-12T11:40:09.137Z,68.80
2018-08-12T11:42:38.025Z,69.90
2018-08-12T11:45:09.905Z,69.70
2018-08-12T11:47:54.694Z,69.30
2018-08-12T11:50:23.911Z,71.70
2018-08-12T11:52:54.679Z,69.10
2018-08-12T11:55:24.411Z,71.20
2018-08-12T11:57:54.659Z,71.10
2018-08-12T12:00:23.708Z,68.60
2018-08-12T12:05:56.882Z,70.40
2018-08-12T12:08:28.666Z,72.60
2018-08-12T12:10:58.684Z,70.40
2018-08-12T12:13:28.826Z,69.80
2018-08-12T12:15:58.948Z,71.30
2018-08-12T12:18:29.558Z,69.90
2018-08-12T12:20:58.684Z,70.30
2018-08-12T12:23:28.492Z,72.30
2018-08-12T12:26:01.542Z,69.20
2018-08-12T12:28:31.877Z,68.50
2018-08-12T12:31:02.139Z,70.70
2018-08-12T12:33:31.412Z,66.20
2018-08-12T12:36:07.938Z,70.00
2018-08-12T12:38:38.947Z,69.50
2018-08-12T12:41:09.338Z,68.60
2018-08-12T12:43:38.310Z,67.50
2018-08-12T12:46:10.660Z,69.20
2018-08-12T12:48:41.788Z,66.30
2018-08-12T12:51:12.087Z,67.40
2018-08-12T12:53:44.563Z,66.80
2018-08-12T12:56:16.130Z,64.70
2018-08-12T13:02:08.834Z,67.90
2018-08-12T13:18:41.910Z,66.10
2018-08-12T13:55:50.235Z,67.30
2018-08-12T14:07:30.556Z,65.70
2018-08-12T14:13:25.943Z,67.70
2018-08-12T14:16:27.351Z,70.50
2018-08-12T14:34:57.851Z,67.50
2018-08-12T15:34:37.296Z,69.60
2018-08-12T15:37:21.762Z,73.70
2018-08-12T15:40:22.516Z,73.30
2018-08-12T15:42:53.302Z,73.20
2018-08-12T15:46:04.668Z,74.60
2018-08-12T15:48:35.054Z,75.20
2018-08-12T15:51:23.470Z,74.20
2018-08-12T15:54:03.675Z,76.00
2018-08-12T15:56:37.073Z,76.00
2018-08-12T15:59:26.396Z,76.40
2018-08-12T16:01:56.243Z,76.70
2018-08-12T16:31:51.539Z,78.90
2018-08-12T16:34:20.662Z,78.70
2018-08-12T16:36:50.474Z,79.20
2018-08-12T16:39:19.116Z,80.50
2018-08-12T16:41:47.838Z,81.60
2018-08-12T16:47:54.557Z,81.60
2018-08-12T16:50:26.097Z,81.70
2018-08-12T16:53:09.975Z,82.70
2018-08-12T17:12:59.254Z,82.50
2018-08-12T17:15:28.221Z,83.30
2018-08-12T17:17:57.542Z,83.90
2018-08-12T17:20:27.103Z,83.10
2018-08-12T17:23:27.379Z,83.80
2018-08-12T17:25:57.959Z,84.00
2018-08-12T17:28:35.115Z,84.90
2018-08-12T17:31:06.263Z,84.80
2018-08-12T17:33:35.585Z,85.50
2018-08-12T17:36:07.729Z,84.80
2018-08-12T17:38:38.347Z,84.40
2018-08-12T17:41:09.163Z,88.00
2018-08-12T17:43:39.169Z,86.90
2018-08-12T17:46:11.062Z,88.10
2018-08-12T17:48:41.598Z,88.80
2018-08-12T17:51:12.234Z,88.70
2018-08-12T17:53:55.498Z,87.80
2018-08-12T17:56:25.138Z,88.60
2018-08-12T17:58:56.994Z,89.70
2018-08-12T18:01:27.563Z,88.10
2018-08-12T18:03:56.242Z,89.20
2018-08-12T18:06:25.154Z,89.80
2018-08-12T18:08:53.913Z,90.10
2018-08-12T18:11:23.784Z,90.20
2018-08-12T18:13:52.540Z,89.60
2018-08-12T18:16:21.866Z,90.00
2018-08-12T18:18:51.500Z,90.80
2018-08-12T18:21:21.081Z,90.90
2018-08-12T18:23:51.128Z,91.40
2018-08-12T18:26:20.459Z,91.20
2018-08-12T18:28:51.446Z,91.00
2018-08-12T18:31:20.744Z,91.40
2018-08-12T18:33:53.037Z,91.30
2018-08-12T18:36:22.389Z,91.20
2018-08-12T18:38:53.979Z,91.30
2018-08-12T18:41:32.788Z,91.00
2018-08-12T18:44:03.797Z,90.80
2018-08-12T18:46:35.364Z,90.90
2018-08-12T18:49:04.911Z,91.50
2018-08-12T18:51:34.200Z,91.90
2018-08-12T18:54:03.854Z,91.60
2018-08-12T18:56:35.365Z,91.70
2018-08-12T18:59:04.565Z,92.20
2018-08-12T19:01:34.268Z,92.80
2018-08-12T19:04:04.187Z,92.80
2018-08-12T19:06:34.743Z,92.80
2018-08-12T19:09:04.737Z,93.20
2018-08-12T19:11:36.145Z,93.40
2018-08-12T19:14:06.205Z,93.50
2018-08-12T19:16:35.423Z,93.40
2018-08-12T19:19:05.323Z,93.30
2018-08-12T19:21:34.765Z,93.40
2018-08-12T19:24:05.208Z,93.40
2018-08-12T19:26:38.190Z,93.30
2018-08-12T19:29:09.468Z,94.00
2018-08-12T19:31:38.949Z,94.20
2018-08-12T19:34:08.350Z,94.40
2018-08-12T19:36:37.086Z,94.50
2018-08-12T19:39:09.457Z,94.70
2018-08-12T19:41:38.353Z,94.70
2018-08-12T19:44:07.444Z,94.70
2018-08-12T19:46:36.940Z,94.90
2018-08-12T19:49:05.845Z,95.20
2018-08-12T19:51:34.369Z,95.10
2018-08-12T19:54:02.993Z,95.00
2018-08-12T19:56:32.167Z,94.70
2018-08-12T19:59:00.651Z,94.70
2018-08-12T20:01:29.603Z,94.80
2018-08-12T20:03:58.187Z,95.20
2018-08-12T20:06:26.990Z,95.90
2018-08-12T20:08:56.158Z,96.60
2018-08-12T20:11:25.290Z,96.80
2018-08-12T20:13:53.826Z,96.90
2018-08-12T20:16:22.835Z,97.20
2018-08-12T20:18:51.718Z,97.40
2018-08-12T20:21:21.193Z,97.70
2018-08-12T20:23:50.579Z,97.70
2018-08-12T20:26:19.168Z,97.60
2018-08-12T20:28:47.636Z,97.70
2018-08-12T20:31:21.453Z,97.30
2018-08-12T20:33:50.343Z,97.50
2018-08-12T20:36:18.915Z,97.80
2018-08-12T20:38:47.545Z,97.90
2018-08-12T20:41:16.192Z,97.90
2018-08-12T20:43:44.866Z,98.50
2018-08-12T20:46:13.958Z,98.20
2018-08-12T20:48:42.775Z,98.30
2018-08-12T20:51:11.374Z,97.90
2018-08-12T20:53:40.135Z,98.00
2018-08-12T20:56:08.932Z,97.90
2018-08-12T20:58:38.943Z,97.60
2018-08-12T21:01:08.741Z,97.70
2018-08-12T21:03:37.257Z,97.90
2018-08-12T21:06:05.944Z,98.50
2018-08-12T21:08:34.490Z,98.10
2018-08-12T21:11:03.198Z,97.90
2018-08-12T21:13:31.776Z,98.00
2018-08-12T21:16:00.360Z,97.80
2018-08-12T21:18:29.814Z,97.80
2018-08-12T21:20:58.638Z,97.70
2018-08-12T21:23:28.457Z,97.70
2018-08-12T21:25:57.192Z,97.50
2018-08-12T21:28:26.353Z,97.50
2018-08-12T21:30:55.293Z,97.60
2018-08-12T21:33:23.845Z,97.40
2018-08-12T21:35:52.455Z,97.50
2018-08-12T21:38:21.385Z,97.80
2018-08-12T21:40:51.248Z,97.80
2018-08-12T21:43:19.974Z,97.80
2018-08-12T21:45:48.655Z,98.00
2018-08-12T21:48:17.469Z,97.80
2018-08-12T21:50:47.056Z,97.60
2018-08-12T21:53:15.697Z,97.80
2018-08-12T21:55:44.205Z,97.40
2018-08-12T21:58:12.838Z,97.20
2018-08-12T22:00:41.504Z,97.40
2018-08-12T22:03:10.176Z,97.50
2018-08-12T22:05:38.888Z,97.50
2018-08-12T22:08:09.043Z,97.30
2018-08-12T22:10:39.783Z,97.50
2018-08-12T22:13:09.188Z,97.70
2018-08-12T22:15:37.823Z,97.60
2018-08-12T22:18:07.670Z,97.30
2018-08-12T22:20:36.265Z,97.10
2018-08-12T22:23:04.875Z,97.30
2018-08-12T22:25:33.545Z,97.20
2018-08-12T22:28:02.341Z,97.30
2018-08-12T22:30:31.652Z,97.50
2018-08-12T22:33:00.512Z,97.60
2018-08-12T22:35:29.131Z,98.10
2018-08-12T22:37:58.376Z,98.40
2018-08-12T22:40:27.014Z,98.50
2018-08-12T22:42:55.737Z,98.50
2018-08-12T22:45:24.396Z,98.70
2018-08-12T22:47:53.045Z,98.80
2018-08-12T22:50:21.716Z,99.20
2018-08-12T22:52:51.178Z,99.50
2018-08-12T22:55:19.849Z,99.60
2018-08-12T22:57:48.570Z,99.70
2018-08-12T23:00:19.092Z,99.60
2018-08-12T23:02:48.018Z,99.70
2018-08-12T23:05:16.648Z,99.70
2018-08-12T23:07:45.318Z,99.90
2018-08-12T23:10:13.941Z,99.90
2018-08-12T23:12:42.577Z,99.90
2018-08-12T23:15:22.435Z,99.90
2018-08-12T23:17:51.100Z,99.90
2018-08-12T23:20:19.762Z,99.60
2018-08-12T23:22:48.322Z,99.80
2018-08-12T23:25:18.990Z,99.50
2018-08-12T23:27:47.593Z,99.60
2018-08-12T23:30:16.252Z,99.70
2018-08-12T23:32:45.048Z,99.80
2018-08-12T23:35:14.301Z,99.50
2018-08-12T23:37:43.111Z,98.30
2018-08-12T23:40:11.765Z,98.10
2018-08-12T23:42:40.468Z,98.10
2018-08-12T23:45:09.145Z,98.00
2018-08-12T23:47:37.772Z,98.20
2018-08-12T23:50:06.388Z,98.70
2018-08-12T23:52:35.096Z,98.10
2018-08-12T23:55:03.756Z,97.50
2018-08-12T23:57:33.290Z,97.60
